createdAt,value
2017-09-29T00:01:01.051Z,69.33
2017-09-29T00:03:28.045Z,63.77
2017-09-29T00:05:54.282Z,73.53
2017-09-29T00:08:20.540Z,67.07
2017-09-29T00:10:46.770Z,70.37
2017-09-29T00:13:12.993Z,69.40
2017-09-29T00:15:39.270Z,67.50
2017-09-29T00:18:05.507Z,71.63
2017-09-29T00:20:31.806Z,72.63
2017-09-29T00:22:58.820Z,65.70
2017-09-29T00:25:25.064Z,70.20
2017-09-29T00:27:52.030Z,68.40
2017-09-29T00:30:18.310Z,68.97
2017-09-29T00:32:44.549Z,73.60
2017-09-29T00:35:10.813Z,69.20
2017-09-29T00:37:37.815Z,79.83
2017-09-29T00:40:04.062Z,72.70
2017-09-29T00:42:30.318Z,76.80
2017-09-29T00:44:56.632Z,75.63
2017-09-29T00:47:23.632Z,72.53
2017-09-29T00:49:49.954Z,70.13
2017-09-29T00:52:16.232Z,69.73
2017-09-29T00:54:43.286Z,67.60
2017-09-29T00:57:10.282Z,70.50
2017-09-29T00:59:36.579Z,68.67
2017-09-29T01:02:03.757Z,73.03
2017-09-29T01:04:30.027Z,74.43
2017-09-29T01:06:56.637Z,72.30
2017-09-29T01:09:22.865Z,66.93
2017-09-29T01:11:49.921Z,74.13
2017-09-29T01:14:16.275Z,75.10
2017-09-29T01:16:43.280Z,73.33
2017-09-29T01:19:09.521Z,75.37
2017-09-29T01:21:35.964Z,75.90
2017-09-29T01:24:02.215Z,84.53
2017-09-29T01:26:29.222Z,75.60
2017-09-29T01:28:55.758Z,84.67
2017-09-29T01:31:22.012Z,77.87
2017-09-29T01:33:48.257Z,66.70
2017-09-29T01:36:15.262Z,79.07
2017-09-29T01:38:41.513Z,74.83
2017-09-29T01:41:07.781Z,75.70
2017-09-29T01:43:34.029Z,83.97
2017-09-29T01:46:00.321Z,75.30
2017-09-29T01:48:27.374Z,83.23
2017-09-29T01:50:54.346Z,78.13
2017-09-29T01:53:20.605Z,77.63
2017-09-29T01:55:46.881Z,71.60
2017-09-29T01:58:13.888Z,76.90
2017-09-29T02:00:40.149Z,86.73
2017-09-29T02:03:07.457Z,81.70
2017-09-29T02:05:33.700Z,70.57
2017-09-29T02:07:59.941Z,74.83
2017-09-29T02:10:26.228Z,76.93
2017-09-29T02:12:52.473Z,69.30
2017-09-29T02:15:18.729Z,74.47
2017-09-29T02:17:45.031Z,75.80
2017-09-29T02:20:11.302Z,70.13
2017-09-29T02:22:38.309Z,73.70
2017-09-29T02:25:04.618Z,74.23
2017-09-29T02:27:30.862Z,70.93
2017-09-29T02:29:57.096Z,67.50
2017-09-29T02:32:23.393Z,71.77
2017-09-29T02:34:49.689Z,69.90
2017-09-29T02:37:16.704Z,74.20
2017-09-29T02:39:43.009Z,75.20
2017-09-29T02:42:09.269Z,76.23
2017-09-29T02:44:35.518Z,78.17
2017-09-29T02:47:02.591Z,72.70
2017-09-29T02:49:28.845Z,70.77
2017-09-29T02:51:55.087Z,80.77
2017-09-29T02:54:21.625Z,69.27
2017-09-29T02:56:54.664Z,74.50
2017-09-29T02:59:22.881Z,67.07
2017-09-29T03:01:51.769Z,73.60
2017-09-29T03:04:19.167Z,79.03
2017-09-29T03:06:46.189Z,75.27
2017-09-29T03:09:12.417Z,73.00
2017-09-29T03:11:38.654Z,77.07
2017-09-29T03:14:04.890Z,72.27
2017-09-29T03:16:31.129Z,67.43
2017-09-29T03:18:58.101Z,69.17
2017-09-29T03:21:24.397Z,72.73
2017-09-29T03:23:51.364Z,72.60
2017-09-29T03:26:18.326Z,73.27
2017-09-29T03:28:44.590Z,68.60
2017-09-29T03:31:10.838Z,83.77
2017-09-29T03:33:37.082Z,76.30
2017-09-29T03:36:03.371Z,71.80
2017-09-29T03:38:29.614Z,70.77
2017-09-29T03:40:55.848Z,76.20
2017-09-29T03:43:22.360Z,71.87
2017-09-29T03:45:48.613Z,77.07
2017-09-29T03:48:14.862Z,71.87
2017-09-29T03:50:48.861Z,76.50
2017-09-29T03:53:16.899Z,74.50
2017-09-29T03:55:45.053Z,72.97
2017-09-29T03:58:15.397Z,69.20
2017-09-29T04:00:41.645Z,76.37
2017-09-29T04:03:08.160Z,71.83
2017-09-29T04:05:34.397Z,72.53
2017-09-29T04:08:00.637Z,72.77
2017-09-29T04:10:26.865Z,68.10
2017-09-29T04:12:53.093Z,64.47
2017-09-29T04:15:19.354Z,65.17
2017-09-29T04:17:45.629Z,80.67
2017-09-29T04:20:11.873Z,72.67
2017-09-29T04:22:38.087Z,71.87
2017-09-29T04:25:04.379Z,78.30
2017-09-29T04:27:30.641Z,67.80
2017-09-29T04:29:56.873Z,72.33
2017-09-29T04:32:23.149Z,72.73
2017-09-29T04:34:50.116Z,68.17
2017-09-29T04:37:16.325Z,76.53
2017-09-29T04:39:43.329Z,74.50
2017-09-29T04:42:09.578Z,75.17
2017-09-29T04:44:36.542Z,71.67
2017-09-29T04:47:03.845Z,76.87
2017-09-29T04:49:30.073Z,69.53
2017-09-29T04:51:56.303Z,74.43
2017-09-29T04:54:22.732Z,74.70
2017-09-29T04:56:48.962Z,71.43
2017-09-29T04:59:15.177Z,77.73
2017-09-29T05:01:41.408Z,72.00
2017-09-29T05:04:07.650Z,80.57
2017-09-29T05:06:34.178Z,81.23
2017-09-29T05:09:00.405Z,84.13
2017-09-29T05:11:26.629Z,71.63
2017-09-29T05:13:52.889Z,79.30
2017-09-29T05:16:19.097Z,82.10
2017-09-29T05:18:45.327Z,73.70
2017-09-29T05:21:11.613Z,76.30
2017-09-29T05:23:37.858Z,81.20
2017-09-29T05:26:04.095Z,72.83
2017-09-29T05:28:30.745Z,80.67
2017-09-29T05:30:57.074Z,74.80
2017-09-29T05:33:23.330Z,72.53
2017-09-29T05:35:49.589Z,73.53
2017-09-29T05:38:15.809Z,77.73
2017-09-29T05:40:42.947Z,87.30
2017-09-29T05:43:09.382Z,73.73
2017-09-29T05:45:37.305Z,73.20
2017-09-29T05:48:04.956Z,84.07
2017-09-29T05:50:31.490Z,69.40
2017-09-29T05:52:57.888Z,69.73
2017-09-29T05:55:24.432Z,78.63
2017-09-29T05:57:51.584Z,74.20
2017-09-29T06:00:18.428Z,73.83
2017-09-29T06:02:44.899Z,73.50
2017-09-29T06:05:11.446Z,73.50
2017-09-29T06:07:38.689Z,78.20
2017-09-29T06:10:06.133Z,91.40
2017-09-29T06:12:33.515Z,91.07
2017-09-29T06:15:00.249Z,76.10
2017-09-29T06:17:26.875Z,77.70
2017-09-29T06:19:53.501Z,75.27
2017-09-29T06:22:20.199Z,76.87
2017-09-29T06:24:47.663Z,76.87
2017-09-29T06:27:14.596Z,84.10
2017-09-29T06:29:41.860Z,77.40
2017-09-29T06:32:08.395Z,81.53
2017-09-29T06:34:35.972Z,77.20
2017-09-29T06:37:02.676Z,89.90
2017-09-29T06:39:29.046Z,75.50
2017-09-29T06:41:56.864Z,74.10
2017-09-29T06:44:24.105Z,73.00
2017-09-29T06:46:50.599Z,73.67
2017-09-29T06:49:17.397Z,72.90
2017-09-29T06:51:44.906Z,80.50
2017-09-29T06:54:11.479Z,80.73
2017-09-29T06:56:38.731Z,72.93
2017-09-29T06:59:06.228Z,77.07
2017-09-29T07:01:33.169Z,99.83
2017-09-29T07:03:59.820Z,86.17
2017-09-29T07:06:26.239Z,82.87
2017-09-29T07:08:52.737Z,78.23
2017-09-29T07:11:19.382Z,76.13
2017-09-29T07:13:46.871Z,73.53
2017-09-29T07:16:13.458Z,94.17
2017-09-29T07:18:40.209Z,75.50
2017-09-29T07:21:06.700Z,91.90
2017-09-29T07:23:33.138Z,84.93
2017-09-29T07:26:01.806Z,80.57
2017-09-29T07:28:29.893Z,88.10
2017-09-29T07:30:57.517Z,72.80
2017-09-29T07:33:24.703Z,76.50
2017-09-29T07:35:51.021Z,68.90
2017-09-29T07:38:17.609Z,68.87
2017-09-29T07:40:43.977Z,74.33
2017-09-29T07:43:10.462Z,80.17
2017-09-29T07:45:37.447Z,71.70
2017-09-29T07:48:04.549Z,71.50
2017-09-29T07:50:31.935Z,71.93
2017-09-29T07:52:59.359Z,73.53
2017-09-29T07:55:25.972Z,65.90
2017-09-29T07:57:52.653Z,73.00
2017-09-29T08:00:19.048Z,70.33
2017-09-29T08:02:45.473Z,78.20
2017-09-29T08:05:11.957Z,65.63
2017-09-29T08:07:39.546Z,65.50
2017-09-29T08:10:06.162Z,72.33
2017-09-29T08:12:33.452Z,65.37
2017-09-29T08:15:00.289Z,70.83
2017-09-29T08:17:26.956Z,60.60
2017-09-29T08:19:53.334Z,76.23
2017-09-29T08:22:20.957Z,62.27
2017-09-29T08:24:47.464Z,66.00
2017-09-29T08:27:13.927Z,67.23
2017-09-29T08:29:40.474Z,63.33
2017-09-29T08:32:07.601Z,68.93
2017-09-29T08:34:33.944Z,65.23
2017-09-29T08:37:00.251Z,60.43
2017-09-29T08:39:26.900Z,60.67
2017-09-29T08:41:53.281Z,63.93
2017-09-29T08:44:19.882Z,61.40
2017-09-29T08:46:46.671Z,59.87
2017-09-29T08:49:13.203Z,57.60
2017-09-29T08:51:39.724Z,61.70
2017-09-29T08:54:06.909Z,60.10
2017-09-29T08:56:33.365Z,63.17
2017-09-29T08:59:01.421Z,63.07
2017-09-29T09:01:29.429Z,66.60
2017-09-29T09:03:55.788Z,64.90
2017-09-29T09:06:23.029Z,68.40
2017-09-29T09:08:50.721Z,74.40
2017-09-29T09:11:17.459Z,65.87
2017-09-29T09:13:43.965Z,62.27
2017-09-29T09:16:10.329Z,60.53
2017-09-29T09:18:37.325Z,59.33
2017-09-29T09:21:03.832Z,62.30
2017-09-29T09:23:30.456Z,67.37
2017-09-29T09:25:57.090Z,59.90
2017-09-29T09:28:23.451Z,68.17
2017-09-29T09:30:49.871Z,67.77
2017-09-29T09:33:17.547Z,59.83
2017-09-29T09:35:44.111Z,60.07
2017-09-29T09:38:11.271Z,61.73
2017-09-29T09:40:38.369Z,61.50
2017-09-29T09:43:05.164Z,61.83
2017-09-29T09:45:31.740Z,59.10
2017-09-29T09:47:58.492Z,61.07
2017-09-29T09:50:24.881Z,58.23
2017-09-29T09:52:51.961Z,65.67
2017-09-29T09:55:19.553Z,58.73
2017-09-29T09:57:46.976Z,69.00
2017-09-29T10:00:14.177Z,61.83
2017-09-29T10:02:41.686Z,60.93
2017-09-29T10:05:08.217Z,58.57
2017-09-29T10:07:34.683Z,59.17
2017-09-29T10:10:01.427Z,66.67
2017-09-29T10:12:28.823Z,58.10
2017-09-29T10:14:55.083Z,52.80
2017-09-29T10:17:21.529Z,67.27
2017-09-29T10:19:48.030Z,57.50
2017-09-29T10:22:14.756Z,58.43
2017-09-29T10:24:41.481Z,60.80
2017-09-29T10:27:07.993Z,56.63
2017-09-29T10:29:34.552Z,50.93
2017-09-29T10:32:02.045Z,53.33
2017-09-29T10:34:28.383Z,57.17
2017-09-29T10:36:55.225Z,52.67
2017-09-29T10:39:21.460Z,51.90
2017-09-29T10:41:47.681Z,59.27
2017-09-29T10:44:13.948Z,51.80
2017-09-29T10:46:40.913Z,53.70
2017-09-29T10:49:07.886Z,59.50
2017-09-29T10:51:34.162Z,50.00
2017-09-29T10:54:00.412Z,45.83
2017-09-29T10:56:27.377Z,50.33
2017-09-29T10:58:53.618Z,47.70
2017-09-29T11:01:19.841Z,45.30
2017-09-29T11:03:46.070Z,47.23
2017-09-29T11:06:12.533Z,45.50
2017-09-29T11:08:38.769Z,46.70
2017-09-29T11:11:04.984Z,49.10
2017-09-29T11:13:31.243Z,45.87
2017-09-29T11:15:57.463Z,48.47
2017-09-29T11:18:23.685Z,59.33
2017-09-29T11:20:50.020Z,80.43
2017-09-29T11:23:16.236Z,55.43
2017-09-29T11:25:42.453Z,44.53
2017-09-29T11:28:08.836Z,56.63
2017-09-29T11:30:35.832Z,99.60
2017-09-29T11:33:02.034Z,107.87
2017-09-29T11:35:28.275Z,60.00
2017-09-29T11:37:54.489Z,62.57
2017-09-29T11:40:20.720Z,74.53
2017-09-29T11:42:47.278Z,85.73
2017-09-29T11:45:13.504Z,55.63
2017-09-29T11:47:39.747Z,52.03
2017-09-29T11:50:06.109Z,48.67
2017-09-29T11:52:33.070Z,44.50
2017-09-29T11:54:59.306Z,48.10
2017-09-29T11:57:25.557Z,44.80
2017-09-29T11:59:51.825Z,62.10
2017-09-29T12:02:18.054Z,41.20
2017-09-29T12:04:44.288Z,51.37
2017-09-29T12:07:11.278Z,63.90
2017-09-29T12:09:37.550Z,43.63
2017-09-29T12:12:03.776Z,39.07
2017-09-29T12:14:30.012Z,46.63
2017-09-29T12:16:57.342Z,35.37
2017-09-29T12:19:24.305Z,30.30
2017-09-29T12:21:51.792Z,29.73
2017-09-29T12:24:18.882Z,30.13
2017-09-29T12:26:45.123Z,26.63
2017-09-29T12:29:12.444Z,27.57
2017-09-29T12:31:38.784Z,27.83
2017-09-29T12:34:05.032Z,30.17
2017-09-29T12:36:31.307Z,32.83
2017-09-29T12:38:57.992Z,28.93
2017-09-29T12:41:25.600Z,25.87
2017-09-29T12:43:52.825Z,26.73
2017-09-29T12:46:19.423Z,28.53
2017-09-29T12:48:46.002Z,25.97
2017-09-29T12:51:12.318Z,28.23
2017-09-29T12:53:39.143Z,25.23
2017-09-29T12:56:05.585Z,24.70
2017-09-29T12:58:32.240Z,27.63
2017-09-29T13:00:59.352Z,25.93
2017-09-29T13:03:26.024Z,26.83
2017-09-29T13:05:53.467Z,25.23
2017-09-29T13:08:19.928Z,25.90
2017-09-29T13:10:47.042Z,25.53
2017-09-29T13:13:13.486Z,25.63
2017-09-29T13:15:40.034Z,25.80
2017-09-29T13:18:06.484Z,23.90
2017-09-29T13:20:33.379Z,21.83
2017-09-29T13:23:00.010Z,21.90
2017-09-29T13:25:26.583Z,21.70
2017-09-29T13:27:53.982Z,23.60
2017-09-29T13:30:20.365Z,22.93
2017-09-29T13:32:46.768Z,22.40
2017-09-29T13:35:13.281Z,23.70
2017-09-29T13:37:39.711Z,23.50
2017-09-29T13:40:06.024Z,22.90
2017-09-29T13:42:33.227Z,37.43
2017-09-29T13:45:00.021Z,36.53
2017-09-29T13:47:27.134Z,33.00
2017-09-29T13:49:54.025Z,48.10
2017-09-29T13:52:20.375Z,37.87
2017-09-29T13:54:46.830Z,30.10
2017-09-29T13:57:13.356Z,39.67
2017-09-29T13:59:39.664Z,31.70
2017-09-29T14:02:06.556Z,29.17
2017-09-29T14:04:33.330Z,27.20
2017-09-29T14:07:00.605Z,59.00
2017-09-29T14:09:27.053Z,57.80
2017-09-29T14:11:53.597Z,69.40
2017-09-29T14:14:20.068Z,36.90
2017-09-29T14:16:47.701Z,80.27
2017-09-29T14:19:14.228Z,38.97
2017-09-29T14:21:40.736Z,37.23
2017-09-29T14:24:07.254Z,43.03
2017-09-29T14:26:33.779Z,59.77
2017-09-29T14:29:00.832Z,52.20
2017-09-29T14:31:27.849Z,38.20
2017-09-29T14:33:54.522Z,40.90
2017-09-29T14:36:21.236Z,45.63
2017-09-29T14:38:48.621Z,36.13
2017-09-29T14:41:15.296Z,38.07
2017-09-29T14:43:42.017Z,35.47
2017-09-29T14:46:08.564Z,38.80
2017-09-29T14:48:35.570Z,36.30
2017-09-29T14:51:01.897Z,37.70
2017-09-29T14:53:29.382Z,36.10
2017-09-29T14:55:55.947Z,34.50
2017-09-29T14:58:22.506Z,38.23
2017-09-29T15:00:48.908Z,33.73
2017-09-29T15:03:15.842Z,40.80
2017-09-29T15:05:42.360Z,35.03
2017-09-29T15:08:08.721Z,56.97
2017-09-29T15:10:36.063Z,36.33
2017-09-29T15:13:02.403Z,56.60
2017-09-29T15:15:28.744Z,134.83
2017-09-29T15:17:56.041Z,70.00
2017-09-29T15:20:22.439Z,43.00
2017-09-29T15:22:49.677Z,43.10
2017-09-29T15:25:16.305Z,44.20
2017-09-29T15:27:42.781Z,38.93
2017-09-29T15:30:10.837Z,53.23
2017-09-29T15:32:37.820Z,37.13
2017-09-29T15:35:04.492Z,36.40
2017-09-29T15:37:30.948Z,45.30
2017-09-29T15:39:57.470Z,41.73
2017-09-29T15:42:23.913Z,43.30
2017-09-29T15:44:50.578Z,46.47
2017-09-29T15:47:18.502Z,34.93
2017-09-29T15:49:45.033Z,41.50
2017-09-29T15:52:11.656Z,39.80
2017-09-29T15:54:39.066Z,37.40
2017-09-29T15:57:05.602Z,33.73
2017-09-29T15:59:32.143Z,42.60
2017-09-29T16:01:58.727Z,41.10
2017-09-29T16:04:25.773Z,41.40
2017-09-29T16:06:52.891Z,46.77
2017-09-29T16:09:20.193Z,42.70
2017-09-29T16:11:47.694Z,45.63
2017-09-29T16:14:14.581Z,66.90
2017-09-29T16:16:41.096Z,62.07
2017-09-29T16:19:07.943Z,141.87
2017-09-29T16:21:34.425Z,84.73
2017-09-29T16:24:01.862Z,56.53
2017-09-29T16:26:28.703Z,47.97
2017-09-29T16:28:55.535Z,63.90
2017-09-29T16:31:22.280Z,42.40
2017-09-29T16:33:48.846Z,47.30
2017-09-29T16:36:15.554Z,43.00
2017-09-29T16:38:42.099Z,48.20
2017-09-29T16:41:08.478Z,53.17
2017-09-29T16:43:36.508Z,113.53
2017-09-29T16:46:02.958Z,87.63
2017-09-29T16:48:29.562Z,60.27
2017-09-29T16:50:56.486Z,52.73
2017-09-29T16:53:24.281Z,52.60
2017-09-29T16:55:51.109Z,41.27
2017-09-29T16:58:19.063Z,39.10
2017-09-29T17:00:45.873Z,45.77
2017-09-29T17:03:13.037Z,42.20
2017-09-29T17:05:40.122Z,46.23
2017-09-29T17:08:07.334Z,48.53
2017-09-29T17:10:34.596Z,49.03
2017-09-29T17:13:01.921Z,50.30
2017-09-29T17:15:28.242Z,68.93
2017-09-29T17:17:56.745Z,78.53
2017-09-29T17:20:23.345Z,196.70
2017-09-29T17:22:50.617Z,147.70
2017-09-29T17:25:17.537Z,57.17
2017-09-29T17:27:45.480Z,72.17
2017-09-29T17:30:13.491Z,51.73
2017-09-29T17:32:40.355Z,56.40
2017-09-29T17:35:07.581Z,43.67
2017-09-29T17:37:34.128Z,47.77
2017-09-29T17:40:01.658Z,47.67
2017-09-29T17:42:28.401Z,42.90
2017-09-29T17:44:55.729Z,46.50
2017-09-29T17:47:25.940Z,53.17
2017-09-29T17:49:55.700Z,51.30
2017-09-29T17:52:22.248Z,48.50
2017-09-29T17:54:49.366Z,60.90
2017-09-29T17:57:16.407Z,49.20
2017-09-29T17:59:43.951Z,47.77
2017-09-29T18:02:10.491Z,48.20
2017-09-29T18:04:42.694Z,48.33
2017-09-29T18:07:09.774Z,48.63
2017-09-29T18:09:36.181Z,40.73
2017-09-29T18:12:02.783Z,44.50
2017-09-29T18:14:30.033Z,86.33
2017-09-29T18:16:57.241Z,94.77
2017-09-29T18:19:24.177Z,266.20
2017-09-29T18:21:51.766Z,128.67
2017-09-29T18:24:19.568Z,71.87
2017-09-29T18:26:46.100Z,65.10
2017-09-29T18:29:13.172Z,56.27
2017-09-29T18:31:39.602Z,70.10
2017-09-29T18:34:06.970Z,47.60
2017-09-29T18:36:34.358Z,42.00
2017-09-29T18:39:00.677Z,59.80
2017-09-29T18:41:27.170Z,214.17
2017-09-29T18:44:08.655Z,85.73
2017-09-29T18:46:39.939Z,43.27
2017-09-29T18:49:08.193Z,66.43
2017-09-29T18:51:35.657Z,47.07
2017-09-29T18:54:02.562Z,89.93
2017-09-29T18:56:28.997Z,49.20
2017-09-29T18:58:56.365Z,42.40
2017-09-29T19:01:24.461Z,44.47
2017-09-29T19:03:51.365Z,33.47
2017-09-29T19:06:18.846Z,56.43
2017-09-29T19:08:46.450Z,53.63
2017-09-29T19:11:13.815Z,41.80
2017-09-29T19:13:41.476Z,47.63
2017-09-29T19:16:08.412Z,42.43
2017-09-29T19:18:34.950Z,36.43
2017-09-29T19:21:01.421Z,41.60
2017-09-29T19:23:28.850Z,40.93
2017-09-29T19:25:55.282Z,115.30
2017-09-29T19:28:23.933Z,41.07
2017-09-29T19:30:51.419Z,41.50
2017-09-29T19:33:18.845Z,42.63
2017-09-29T19:35:45.741Z,40.03
2017-09-29T19:38:12.387Z,41.77
2017-09-29T19:40:40.186Z,39.53
2017-09-29T19:43:07.316Z,45.33
2017-09-29T19:45:33.815Z,38.33
2017-09-29T19:48:00.619Z,41.30
2017-09-29T19:50:28.905Z,39.00
2017-09-29T19:52:56.088Z,38.73
2017-09-29T19:55:23.246Z,45.53
2017-09-29T19:57:50.327Z,31.50
2017-09-29T20:00:17.419Z,41.27
2017-09-29T20:02:44.483Z,36.40
2017-09-29T20:05:11.113Z,39.57
2017-09-29T20:07:38.733Z,35.87
2017-09-29T20:10:06.234Z,37.40
2017-09-29T20:12:32.759Z,42.40
2017-09-29T20:15:00.007Z,37.70
2017-09-29T20:17:26.360Z,36.90
2017-09-29T20:19:53.348Z,40.50
2017-09-29T20:22:21.547Z,38.37
2017-09-29T20:24:48.975Z,33.93
2017-09-29T20:27:16.649Z,40.43
2017-09-29T20:29:43.487Z,33.83
2017-09-29T20:32:10.238Z,34.53
2017-09-29T20:34:37.171Z,38.43
2017-09-29T20:37:03.588Z,39.53
2017-09-29T20:39:30.705Z,36.80
2017-09-29T20:41:57.484Z,34.40
2017-09-29T20:44:26.395Z,32.50
2017-09-29T20:46:54.474Z,35.77
2017-09-29T20:49:22.084Z,37.17
2017-09-29T20:51:50.247Z,32.87
2017-09-29T20:54:19.165Z,33.50
2017-09-29T20:56:45.923Z,33.90
2017-09-29T20:59:14.348Z,35.97
2017-09-29T21:01:41.507Z,41.93
2017-09-29T21:04:09.782Z,35.93
2017-09-29T21:06:36.038Z,34.00
2017-09-29T21:09:04.289Z,31.30
2017-09-29T21:11:32.736Z,33.27
2017-09-29T21:13:59.216Z,32.97
2017-09-29T21:16:27.297Z,34.53
2017-09-29T21:18:53.633Z,50.47
2017-09-29T21:21:21.096Z,35.33
2017-09-29T21:23:48.537Z,31.50
2017-09-29T21:26:15.467Z,37.20
2017-09-29T21:28:42.053Z,40.10
2017-09-29T21:31:08.384Z,34.10
2017-09-29T21:33:35.895Z,30.40
2017-09-29T21:36:02.449Z,30.00
2017-09-29T21:38:31.454Z,35.40
2017-09-29T21:40:58.819Z,31.10
2017-09-29T21:43:25.679Z,57.93
2017-09-29T21:45:54.200Z,28.90
2017-09-29T21:48:22.929Z,30.33
2017-09-29T21:50:50.164Z,38.40
2017-09-29T21:53:17.816Z,35.27
2017-09-29T21:55:45.033Z,28.13
2017-09-29T21:58:12.169Z,36.23
2017-09-29T22:00:39.366Z,30.60
2017-09-29T22:03:07.698Z,217.47
2017-09-29T22:05:37.057Z,107.73
2017-09-29T22:08:04.378Z,397.27
2017-09-29T22:10:30.836Z,328.00
2017-09-29T22:12:59.524Z,81.97
2017-09-29T22:15:27.384Z,144.87
2017-09-29T22:17:54.014Z,74.83
2017-09-29T22:20:21.124Z,52.27
2017-09-29T22:22:47.632Z,66.03
2017-09-29T22:25:15.768Z,30.93
2017-09-29T22:27:43.207Z,43.47
2017-09-29T22:30:11.446Z,53.43
2017-09-29T22:32:38.435Z,54.73
2017-09-29T22:35:05.430Z,44.23
2017-09-29T22:37:32.282Z,35.80
2017-09-29T22:39:59.272Z,32.67
2017-09-29T22:42:27.248Z,31.70
2017-09-29T22:44:54.581Z,52.13
2017-09-29T22:47:24.796Z,35.63
2017-09-29T22:49:52.470Z,37.30
2017-09-29T22:52:20.225Z,44.73
2017-09-29T22:54:47.077Z,34.47
2017-09-29T22:57:15.453Z,35.27
2017-09-29T22:59:42.642Z,30.20
2017-09-29T23:02:09.765Z,35.90
2017-09-29T23:04:36.241Z,32.07
2017-09-29T23:07:04.089Z,155.57
2017-09-29T23:09:31.389Z,172.23
2017-09-29T23:11:58.728Z,87.50
2017-09-29T23:14:25.555Z,46.30
2017-09-29T23:16:51.999Z,38.33
2017-09-29T23:19:18.444Z,91.07
2017-09-29T23:21:45.462Z,72.87
2017-09-29T23:24:12.733Z,70.73
2017-09-29T23:26:39.028Z,71.23
2017-09-29T23:29:06.762Z,40.83
2017-09-29T23:31:33.357Z,31.53
2017-09-29T23:33:59.634Z,35.37
2017-09-29T23:36:27.158Z,31.50
2017-09-29T23:38:53.753Z,51.57
2017-09-29T23:41:21.213Z,40.90
2017-09-29T23:43:48.209Z,37.07
2017-09-29T23:46:15.980Z,33.60
2017-09-29T23:48:42.857Z,65.23
2017-09-29T23:51:10.162Z,37.77
2017-09-29T23:53:37.177Z,61.07
2017-09-29T23:56:03.661Z,106.97
2017-09-29T23:58:30.221Z,164.10
